Time;durP1;ratioP1;P1;durP2;ratioP2;P2;SDS_P1;SDS_P2;PMS_P1;PMS_P2;Temp;Humidity;BMP_temperature;BMP_pressure;BME280_temperature;BME280_humidity;BME280_pressure;Samples;Min_cycle;Max_cycle;Signal;HPM_P1;HPM_P2
2023/06/20 00:01:42;;;;;;;;;;;;;;;18.68;100.00;95402.78;10503889;28;1892;-69
2023/06/20 00:06:45;;;;;;;;;;;;;;;18.90;100.00;95396.97;10506465;28;1848;-69
2023/06/20 00:11:47;;;;;;;;;;;;;;;18.77;100.00;95403.50;10508391;28;1957;-70
2023/06/20 00:16:49;;;;;;;;;;;;;;;18.56;100.00;95413.56;10505164;28;1864;-70
2023/06/20 00:21:52;;;;;;;;;;;;;;;18.29;100.00;95421.13;10501012;28;1872;-70
2023/06/20 00:26:56;;;;;;;;;;;;;;;18.20;100.00;95417.69;10513186;28;2058;-70
2023/06/20 00:31:58;;;;;;;;;;;;;;;18.04;100.00;95419.38;10495221;28;2242;-70
2023/06/20 00:37:01;;;;;;;;;;;;;;;17.98;100.00;95412.53;10503481;28;2338;-69
2023/06/20 00:42:05;;;;;;;;;;;;;;;17.95;100.00;95405.06;10499325;28;4525;-70
2023/06/20 00:47:07;;;;;;;;;;;;;;;18.04;100.00;95403.06;10505569;28;2018;-70
2023/06/20 00:52:10;;;;;;;;;;;;;;;18.03;100.00;95399.56;10503284;28;2104;-70
2023/06/20 00:57:13;;;;;;;;;;;;;;;18.02;100.00;95395.25;10503601;28;1962;-69
2023/06/20 01:02:15;;;;;;;;;;;;;;;18.08;100.00;95406.72;10494991;28;3670;-69
2023/06/20 01:07:18;;;;;;;;;;;;;;;18.06;100.00;95417.91;10507608;28;1972;-68
2023/06/20 01:12:21;;;;;;;;;;;;;;;17.98;100.00;95420.69;10502229;28;1978;-70
2023/06/20 01:17:24;;;;;;;;;;;;;;;17.84;100.00;95415.50;10507936;28;1903;-69
2023/06/20 01:22:27;;;;;;;;;;;;;;;17.77;100.00;95413.31;10500626;28;1914;-69
2023/06/20 01:27:29;;;;;;;;;;;;;;;17.77;100.00;95412.50;10506973;28;1967;-70
2023/06/20 01:32:32;;;;;;;;;;;;;;;17.83;100.00;95409.28;10505105;28;1973;-69
2023/06/20 01:37:34;;;;;;;;;;;;;;;17.95;100.00;95415.94;10498140;28;2167;-69
2023/06/20 01:42:37;;;;;;;;;;;;;;;18.07;100.00;95419.53;10495193;28;4489;-69
2023/06/20 01:47:39;;;;;;;;;;;;;;;18.18;100.00;95433.53;10502748;28;1945;-69
2023/06/20 01:52:42;;;;;;;;;;;;;;;18.25;100.00;95431.06;10502100;28;2301;-68
2023/06/20 01:57:44;;;;;;;;;;;;;;;18.27;100.00;95437.00;10500898;28;2270;-69
2023/06/20 02:02:47;;;;;;;;;;;;;;;18.18;100.00;95438.19;10501772;28;1977;-68
2023/06/20 02:07:50;;;;;;;;;;;;;;;18.20;100.00;95453.06;10503108;28;2002;-68
2023/06/20 02:12:52;;;;;;;;;;;;;;;18.19;100.00;95459.59;10503650;28;2000;-69
2023/06/20 02:17:54;;;;;;;;;;;;;;;18.17;100.00;95456.44;10509699;28;2034;-68
2023/06/20 02:22:57;;;;;;;;;;;;;;;18.26;100.00;95475.44;10508533;28;1990;-68
2023/06/20 02:27:59;;;;;;;;;;;;;;;18.36;100.00;95505.75;10507607;28;2255;-69
2023/06/20 02:33:03;;;;;;;;;;;;;;;18.69;100.00;95572.34;10492265;28;2200;-69
2023/06/20 02:38:05;;;;;;;;;;;;;;;18.49;100.00;95571.97;10504407;28;1950;-69
2023/06/20 02:43:08;;;;;;;;;;;;;;;18.54;100.00;95565.53;10513251;28;4779;-70
2023/06/20 02:48:10;;;;;;;;;;;;;;;18.56;100.00;95566.78;10504327;28;2317;-68
2023/06/20 02:53:13;;;;;;;;;;;;;;;18.78;100.00;95557.56;10510389;28;1979;-68
2023/06/20 02:58:16;;;;;;;;;;;;;;;18.77;100.00;95571.53;10504739;28;1941;-67
2023/06/20 03:03:18;;;;;;;;;;;;;;;18.87;100.00;95579.28;10509019;28;1977;-70
2023/06/20 03:08:21;;;;;;;;;;;;;;;18.88;100.00;95573.50;10516379;28;2010;-70
2023/06/20 03:13:25;;;;;;;;;;;;;;;19.11;100.00;95592.25;10508158;28;2020;-69
2023/06/20 03:18:29;;;;;;;;;;;;;;;18.86;100.00;95581.22;10516921;28;1941;-69
2023/06/20 03:23:31;;;;;;;;;;;;;;;18.84;100.00;95594.38;10506390;28;1946;-69
2023/06/20 03:28:34;;;;;;;;;;;;;;;18.80;100.00;95607.03;10507808;28;2389;-69
2023/06/20 03:33:36;;;;;;;;;;;;;;;18.75;100.00;95601.00;10506578;28;2214;-68
2023/06/20 03:38:39;;;;;;;;;;;;;;;18.67;100.00;95620.91;10503116;28;1990;-70
2023/06/20 03:43:41;;;;;;;;;;;;;;;18.74;100.00;95610.28;10504459;28;4541;-71
2023/06/20 03:48:44;;;;;;;;;;;;;;;18.96;100.00;95611.91;10508651;28;2077;-69
2023/06/20 03:53:47;;;;;;;;;;;;;;;19.09;100.00;95616.31;10506427;28;1989;-71
2023/06/20 03:58:49;;;;;;;;;;;;;;;19.32;100.00;95628.47;10511736;28;2004;-70
2023/06/20 04:03:52;;;;;;;;;;;;;;;19.43;100.00;95626.16;10513132;28;1972;-68
2023/06/20 04:08:55;;;;;;;;;;;;;;;19.35;100.00;95635.19;10502033;28;2027;-68
2023/06/20 04:13:58;;;;;;;;;;;;;;;19.50;100.00;95628.34;10505709;28;1929;-69
2023/06/20 04:19:00;;;;;;;;;;;;;;;19.64;100.00;95637.06;10504302;28;1997;-69
2023/06/20 04:24:03;;;;;;;;;;;;;;;19.74;100.00;95642.09;10500303;28;2370;-69
2023/06/20 04:29:05;;;;;;;;;;;;;;;19.97;100.00;95634.31;10494618;28;1999;-69
2023/06/20 04:34:08;;;;;;;;;;;;;;;20.30;100.00;95645.22;10498773;28;2053;-69
2023/06/20 04:39:11;;;;;;;;;;;;;;;20.35;100.00;95638.72;10499366;28;2037;-69
2023/06/20 04:44:13;;;;;;;;;;;;;;;20.43;100.00;95640.59;10498560;28;4564;-69
2023/06/20 04:49:16;;;;;;;;;;;;;;;20.64;100.00;95640.50;10497595;28;2041;-70
2023/06/20 04:54:19;;;;;;;;;;;;;;;20.60;100.00;95631.38;10508750;28;1958;-69
2023/06/20 04:59:21;;;;;;;;;;;;;;;20.59;100.00;95635.25;10505937;28;1941;-69
2023/06/20 05:04:24;;;;;;;;;;;;;;;20.68;100.00;95634.03;10491140;28;1992;-69
2023/06/20 05:09:27;;;;;;;;;;;;;;;21.02;100.00;95648.34;10504163;28;2045;-69
2023/06/20 05:14:29;;;;;;;;;;;;;;;21.73;100.00;95649.69;10485654;28;2002;-69
2023/06/20 05:19:32;;;;;;;;;;;;;;;22.17;100.00;95657.94;10502537;28;2273;-69
2023/06/20 05:24:35;;;;;;;;;;;;;;;22.66;100.00;95651.03;10509186;28;2412;-69
2023/06/20 05:29:39;;;;;;;;;;;;;;;22.71;100.00;95640.94;10503019;28;2014;-68
2023/06/20 05:34:41;;;;;;;;;;;;;;;23.21;100.00;95640.16;10504488;28;1992;-67
2023/06/20 05:39:44;;;;;;;;;;;;;;;23.45;100.00;95636.38;10501898;28;2048;-68
2023/06/20 05:44:46;;;;;;;;;;;;;;;23.30;100.00;95645.47;10508384;28;4549;-67
2023/06/20 05:49:49;;;;;;;;;;;;;;;23.81;100.00;95642.66;10517590;28;1931;-67
2023/06/20 05:54:53;;;;;;;;;;;;;;;24.15;100.00;95652.72;10508818;28;2092;-68
2023/06/20 05:59:56;;;;;;;;;;;;;;;24.47;100.00;95660.78;10508590;28;1913;-67
2023/06/20 06:04:59;;;;;;;;;;;;;;;24.98;100.00;95660.47;10506570;28;2147;-68
2023/06/20 06:10:02;;;;;;;;;;;;;;;25.61;100.00;95654.31;10495547;28;2274;-67
2023/06/20 06:15:06;;;;;;;;;;;;;;;25.37;100.00;95649.28;10511342;28;2263;-68
2023/06/20 06:20:11;;;;;;;;;;;;;;;25.45;100.00;95642.69;10504870;28;1977;-68
2023/06/20 06:25:13;;;;;;;;;;;;;;;24.99;100.00;95632.59;10499484;28;2023;-67
2023/06/20 06:30:16;;;;;;;;;;;;;;;24.79;100.00;95642.09;10495008;28;1984;-67
2023/06/20 06:35:18;;;;;;;;;;;;;;;24.91;100.00;95638.34;10509891;28;2120;-67
2023/06/20 06:40:21;;;;;;;;;;;;;;;25.09;100.00;95639.47;10503369;28;1994;-68
2023/06/20 06:45:24;;;;;;;;;;;;;;;25.36;100.00;95642.97;10513566;28;4489;-68
2023/06/20 06:50:27;;;;;;;;;;;;;;;25.29;100.00;95637.38;10517655;28;1987;-67
2023/06/20 06:55:29;;;;;;;;;;;;;;;25.21;100.00;95642.00;10517205;28;1660;-66
2023/06/20 07:00:32;;;;;;;;;;;;;;;24.50;100.00;95638.88;10502217;28;1942;-67
2023/06/20 07:05:34;;;;;;;;;;;;;;;23.98;100.00;95643.00;10520580;28;1907;-68
2023/06/20 07:10:37;;;;;;;;;;;;;;;23.58;100.00;95632.34;10515719;28;2174;-68
2023/06/20 07:15:39;;;;;;;;;;;;;;;23.40;100.00;95628.44;10517975;28;1969;-67
2023/06/20 07:20:42;;;;;;;;;;;;;;;23.30;100.00;95623.53;10516970;28;1925;-68
2023/06/20 07:25:44;;;;;;;;;;;;;;;22.86;100.00;95612.72;10518159;28;2156;-67
2023/06/20 07:30:46;;;;;;;;;;;;;;;22.74;100.00;95607.34;10515799;28;1994;-66
2023/06/20 07:35:49;;;;;;;;;;;;;;;22.73;100.00;95600.28;10518096;28;2241;-67
2023/06/20 07:40:51;;;;;;;;;;;;;;;22.78;100.00;95597.28;10511667;28;4618;-68
2023/06/20 07:45:53;;;;;;;;;;;;;;;23.26;100.00;95584.25;10508209;28;1976;-68
2023/06/20 07:50:56;;;;;;;;;;;;;;;23.86;100.00;95585.53;10514219;28;1925;-67
2023/06/20 07:55:59;;;;;;;;;;;;;;;25.06;100.00;95587.94;10508263;28;1947;-67
2023/06/20 08:01:02;;;;;;;;;;;;;;;26.31;100.00;95573.69;10481102;28;1950;-67
2023/06/20 08:06:05;;;;;;;;;;;;;;;27.63;100.00;95571.88;10511594;28;1941;-67
2023/06/20 08:11:07;;;;;;;;;;;;;;;27.10;100.00;95583.44;10504774;28;2608;-67
2023/06/20 08:16:09;;;;;;;;;;;;;;;27.31;100.00;95568.97;10501936;28;1962;-67
2023/06/20 08:21:12;;;;;;;;;;;;;;;26.99;100.00;95579.00;10501001;28;2039;-68
2023/06/20 08:26:15;;;;;;;;;;;;;;;27.26;100.00;95583.13;10502700;28;1974;-69
2023/06/20 08:31:17;;;;;;;;;;;;;;;28.37;95.58;95586.31;10496857;28;1965;-68
2023/06/20 08:36:21;;;;;;;;;;;;;;;27.85;96.37;95583.78;10507135;28;2056;-69
2023/06/20 08:41:23;;;;;;;;;;;;;;;27.99;91.85;95570.03;10497522;28;1970;-69
2023/06/20 08:46:26;;;;;;;;;;;;;;;28.29;91.77;95566.13;10508323;28;1968;-68
2023/06/20 08:51:28;;;;;;;;;;;;;;;28.24;83.45;95569.28;10500797;28;2048;-69
2023/06/20 08:56:31;;;;;;;;;;;;;;;28.50;81.83;95563.44;10500215;28;2186;-69
2023/06/20 09:01:35;;;;;;;;;;;;;;;28.54;81.54;95547.63;10500504;28;2112;-69
2023/06/20 09:06:38;;;;;;;;;;;;;;;28.68;79.25;95551.56;10500692;28;2310;-69
2023/06/20 09:11:40;;;;;;;;;;;;;;;28.64;74.25;95545.25;10498136;28;2084;-69
2023/06/20 09:16:43;;;;;;;;;;;;;;;28.87;74.16;95542.84;10497106;28;2009;-69
2023/06/20 09:21:45;;;;;;;;;;;;;;;28.75;73.37;95535.75;10500530;28;1988;-68
2023/06/20 09:26:51;;;;;;;;;;;;;;;28.84;70.70;95527.06;10494168;28;1973;-68
2023/06/20 09:31:54;;;;;;;;;;;;;;;28.15;70.63;95513.63;10499300;28;2059;-67
2023/06/20 09:36:56;;;;;;;;;;;;;;;28.97;73.50;95514.41;10499623;28;2007;-67
2023/06/20 09:41:59;;;;;;;;;;;;;;;29.23;67.60;95518.69;10494063;28;4526;-67
2023/06/20 09:47:01;;;;;;;;;;;;;;;29.20;58.70;95499.31;10502899;28;1988;-68
2023/06/20 09:52:04;;;;;;;;;;;;;;;29.53;60.47;95501.59;10499887;28;1961;-67
2023/06/20 09:57:06;;;;;;;;;;;;;;;29.63;59.86;95499.94;10508874;28;1914;-67
2023/06/20 10:02:09;;;;;;;;;;;;;;;29.76;54.22;95489.19;10493702;28;2305;-67
2023/06/20 10:07:11;;;;;;;;;;;;;;;29.33;58.12;95486.63;10500462;28;1899;-67
2023/06/20 10:12:14;;;;;;;;;;;;;;;29.23;54.53;95482.69;10500764;28;1943;-66
2023/06/20 10:17:17;;;;;;;;;;;;;;;29.32;55.04;95476.72;10492114;28;1832;-68
2023/06/20 10:22:19;;;;;;;;;;;;;;;29.29;58.26;95472.78;10496887;28;1916;-69
2023/06/20 10:27:21;;;;;;;;;;;;;;;29.07;56.22;95472.09;10493466;28;1886;-69
2023/06/20 10:32:24;;;;;;;;;;;;;;;29.55;61.67;95476.25;10496572;28;1914;-69
2023/06/20 10:37:26;;;;;;;;;;;;;;;30.33;55.67;95458.31;10512248;28;1983;-69
2023/06/20 10:42:29;;;;;;;;;;;;;;;31.98;43.78;95446.94;10487238;28;2006;-68
2023/06/20 10:47:31;;;;;;;;;;;;;;;31.46;44.70;95450.81;10503734;28;1918;-68
2023/06/20 10:52:35;;;;;;;;;;;;;;;30.90;48.27;95441.16;10503177;28;1910;-68
2023/06/20 10:57:37;;;;;;;;;;;;;;;32.16;45.20;95430.75;10505006;28;2439;-69
2023/06/20 11:02:40;;;;;;;;;;;;;;;32.16;40.49;95427.97;10507773;28;1867;-68
2023/06/20 11:07:42;;;;;;;;;;;;;;;32.00;42.86;95427.81;10519032;28;1895;-68
2023/06/20 11:12:53;;;;;;;;;;;;;;;32.78;41.41;95414.59;10510810;28;1928;-68
2023/06/20 11:17:55;;;;;;;;;;;;;;;31.75;41.25;95401.19;10510633;28;1883;-68
2023/06/20 11:22:58;;;;;;;;;;;;;;;31.86;42.11;95398.25;10509992;28;1896;-68
2023/06/20 11:28:00;;;;;;;;;;;;;;;31.66;42.74;95402.91;10511838;28;2112;-67
2023/06/20 11:33:02;;;;;;;;;;;;;;;31.58;42.99;95398.69;10509148;28;1906;-68
2023/06/20 11:38:05;;;;;;;;;;;;;;;30.59;46.57;95387.56;10514582;28;1932;-68
2023/06/20 11:43:07;;;;;;;;;;;;;;;30.51;45.16;95400.72;10510413;28;4561;-67
2023/06/20 11:48:10;;;;;;;;;;;;;;;30.36;46.05;95390.97;10508732;28;2077;-67
2023/06/20 11:53:12;;;;;;;;;;;;;;;30.91;46.28;95381.66;10508746;28;2290;-67
2023/06/20 11:58:15;;;;;;;;;;;;;;;31.53;43.26;95377.69;10503307;28;1868;-68
2023/06/20 12:03:17;;;;;;;;;;;;;;;30.72;45.11;95368.41;10510323;28;1986;-68
2023/06/20 12:08:20;;;;;;;;;;;;;;;30.76;46.16;95377.50;10509108;28;1974;-67
2023/06/20 12:13:22;;;;;;;;;;;;;;;31.36;45.41;95359.28;10506188;28;1922;-68
2023/06/20 12:18:25;;;;;;;;;;;;;;;31.53;42.71;95355.47;10505133;28;2099;-68
2023/06/20 12:23:27;;;;;;;;;;;;;;;31.94;39.57;95354.50;10508998;28;1878;-70
2023/06/20 12:28:30;;;;;;;;;;;;;;;31.20;43.53;95360.69;10497488;28;1891;-68
2023/06/20 12:33:33;;;;;;;;;;;;;;;31.53;42.49;95349.13;10504459;28;1949;-65
2023/06/20 12:38:35;;;;;;;;;;;;;;;31.44;40.88;95341.34;10503371;28;1910;-67
2023/06/20 12:43:37;;;;;;;;;;;;;;;31.98;42.67;95355.19;10508766;28;1965;-67
2023/06/20 12:48:40;;;;;;;;;;;;;;;31.75;43.34;95340.06;10502586;28;2270;-68
2023/06/20 12:53:43;;;;;;;;;;;;;;;32.10;40.23;95332.34;10505024;28;1998;-68
2023/06/20 12:58:46;;;;;;;;;;;;;;;31.90;41.70;95340.63;10504593;28;1939;-66
2023/06/20 13:03:48;;;;;;;;;;;;;;;31.63;43.38;95334.31;10511592;28;1999;-67
2023/06/20 13:08:51;;;;;;;;;;;;;;;31.44;44.89;95313.56;10509963;28;1918;-66
2023/06/20 13:13:53;;;;;;;;;;;;;;;31.79;44.56;95322.56;10507406;28;1993;-66
2023/06/20 13:18:59;;;;;;;;;;;;;;;31.98;43.36;95319.84;10507796;28;1891;-68
2023/06/20 13:24:03;;;;;;;;;;;;;;;31.76;43.90;95318.63;10508987;28;2166;-68
2023/06/20 13:29:12;;;;;;;;;;;;;;;31.89;42.58;95307.72;10504020;28;1895;-67
2023/06/20 13:34:14;;;;;;;;;;;;;;;31.91;43.79;95308.06;10501650;28;2273;-69
2023/06/20 13:39:19;;;;;;;;;;;;;;;31.93;43.23;95306.44;10500121;28;2076;-67
2023/06/20 13:44:21;;;;;;;;;;;;;;;31.94;42.79;95312.78;10484856;28;4607;-68
2023/06/20 13:49:25;;;;;;;;;;;;;;;31.46;43.29;95300.81;10505699;28;1836;-68
2023/06/20 13:54:27;;;;;;;;;;;;;;;31.64;43.67;95306.09;10509567;28;1965;-68
2023/06/20 13:59:29;;;;;;;;;;;;;;;32.33;40.87;95295.44;10496956;28;1469;-67
2023/06/20 14:04:32;;;;;;;;;;;;;;;32.29;41.51;95289.88;10502213;28;1904;-67
2023/06/20 14:09:35;;;;;;;;;;;;;;;31.64;40.66;95291.44;10497984;28;1955;-67
2023/06/20 14:14:37;;;;;;;;;;;;;;;31.86;40.80;95289.88;10511780;28;1917;-67
2023/06/20 14:19:39;;;;;;;;;;;;;;;31.38;41.38;95284.69;10515452;28;1963;-68
2023/06/20 14:24:42;;;;;;;;;;;;;;;31.25;41.10;95278.16;10507259;28;1874;-67
2023/06/20 14:29:44;;;;;;;;;;;;;;;31.31;40.48;95279.25;10507104;28;2179;-68
2023/06/20 14:34:47;;;;;;;;;;;;;;;31.24;42.40;95268.25;10510646;28;1949;-67
2023/06/20 14:39:51;;;;;;;;;;;;;;;31.32;40.94;95264.94;10511341;28;1886;-67
2023/06/20 14:44:54;;;;;;;;;;;;;;;31.51;40.10;95268.22;10511695;28;4492;-67
2023/06/20 14:49:57;;;;;;;;;;;;;;;31.46;40.16;95259.16;10508256;28;1844;-66
2023/06/20 14:55:01;;;;;;;;;;;;;;;31.59;40.99;95259.34;10506787;28;1924;-68
2023/06/20 15:00:05;;;;;;;;;;;;;;;31.00;41.32;95251.53;10504524;28;1937;-67
2023/06/20 15:05:07;;;;;;;;;;;;;;;31.70;41.35;95248.84;10504646;28;2239;-68
2023/06/20 15:10:10;;;;;;;;;;;;;;;31.69;43.01;95241.72;10510373;28;1971;-68
2023/06/20 15:15:13;;;;;;;;;;;;;;;31.18;44.49;95249.28;10503191;28;1988;-69
2023/06/20 15:20:15;;;;;;;;;;;;;;;31.26;45.71;95240.84;10512823;28;1886;-68
2023/06/20 15:25:17;;;;;;;;;;;;;;;31.29;47.03;95231.69;10508117;28;2068;-68
2023/06/20 15:30:20;;;;;;;;;;;;;;;31.48;47.21;95231.75;10501501;28;1950;-68
2023/06/20 15:35:22;;;;;;;;;;;;;;;31.47;47.72;95240.50;10504284;28;2364;-67
2023/06/20 15:40:25;;;;;;;;;;;;;;;31.31;48.37;95237.63;10495573;28;2099;-68
2023/06/20 15:45:28;;;;;;;;;;;;;;;31.45;49.47;95237.38;10510133;28;4493;-66
2023/06/20 15:50:35;;;;;;;;;;;;;;;31.14;51.71;95234.66;10508663;28;1943;-67
2023/06/20 15:55:37;;;;;;;;;;;;;;;31.20;52.12;95232.97;10506517;28;1914;-67
2023/06/20 16:00:40;;;;;;;;;;;;;;;31.56;50.31;95226.09;10507543;28;1925;-67
2023/06/20 16:05:42;;;;;;;;;;;;;;;31.13;51.80;95227.53;10499432;28;1863;-68
2023/06/20 16:10:45;;;;;;;;;;;;;;;31.28;53.08;95232.88;10502761;28;1911;-67
2023/06/20 16:15:48;;;;;;;;;;;;;;;30.70;54.05;95232.91;10495655;28;1919;-68
2023/06/20 16:20:50;;;;;;;;;;;;;;;30.55;54.64;95221.19;10505718;28;1960;-68
2023/06/20 16:25:52;;;;;;;;;;;;;;;30.27;58.50;95230.66;10507468;28;1906;-68
2023/06/20 16:30:55;;;;;;;;;;;;;;;30.26;58.20;95226.31;10501763;28;1933;-68
2023/06/20 16:35:57;;;;;;;;;;;;;;;30.20;60.07;95216.09;10506472;28;2464;-69
2023/06/20 16:40:59;;;;;;;;;;;;;;;30.23;60.31;95210.50;10500018;28;4576;-66
2023/06/20 16:46:02;;;;;;;;;;;;;;;29.99;61.28;95206.78;10508527;28;1934;-69
2023/06/20 16:51:04;;;;;;;;;;;;;;;30.06;62.22;95195.63;10501262;28;1886;-67
2023/06/20 16:56:11;;;;;;;;;;;;;;;30.33;60.36;95206.81;10501387;28;1960;-66
2023/06/20 17:01:13;;;;;;;;;;;;;;;30.39;60.29;95196.81;10509057;28;1909;-68
2023/06/20 17:06:17;;;;;;;;;;;;;;;30.25;61.78;95199.78;10508567;28;1929;-68
2023/06/20 17:11:20;;;;;;;;;;;;;;;30.33;60.47;95190.16;10499717;28;2014;-68
2023/06/20 17:16:25;;;;;;;;;;;;;;;30.23;59.71;95187.56;10511919;28;1910;-67
2023/06/20 17:21:27;;;;;;;;;;;;;;;30.07;60.23;95197.19;10491018;28;1899;-68
2023/06/20 17:26:30;;;;;;;;;;;;;;;29.77;59.73;95192.38;10501782;28;1863;-69
2023/06/20 17:31:32;;;;;;;;;;;;;;;29.66;59.60;95193.69;10503282;28;2372;-70
2023/06/20 17:36:35;;;;;;;;;;;;;;;29.65;57.85;95206.75;10502198;28;1948;-71
2023/06/20 17:41:37;;;;;;;;;;;;;;;30.00;56.14;95213.91;10494735;28;1918;-71
2023/06/20 17:46:39;;;;;;;;;;;;;;;30.05;56.02;95216.22;10493086;28;1894;-71
2023/06/20 17:51:56;;;;;;;;;;;;;;;29.83;58.55;95226.75;10492609;28;1847;-70
2023/06/20 17:57:00;;;;;;;;;;;;;;;29.45;60.11;95223.13;10498889;28;1964;-71
2023/06/20 18:02:02;;;;;;;;;;;;;;;29.04;65.01;95206.47;10511013;28;2086;-68
2023/06/20 18:07:05;;;;;;;;;;;;;;;28.83;68.73;95199.06;10503592;28;1852;-70
2023/06/20 18:12:08;;;;;;;;;;;;;;;28.61;72.44;95197.63;10508650;28;1868;-68
2023/06/20 18:17:10;;;;;;;;;;;;;;;28.49;75.21;95188.59;10496000;28;1961;-69
2023/06/20 18:22:15;;;;;;;;;;;;;;;28.34;78.60;95180.78;10505957;28;1962;-68
2023/06/20 18:27:18;;;;;;;;;;;;;;;28.17;81.56;95196.22;10492843;28;2346;-72
2023/06/20 18:32:20;;;;;;;;;;;;;;;28.00;83.71;95206.19;10502301;28;1930;-69
2023/06/20 18:37:23;;;;;;;;;;;;;;;27.90;85.48;95205.00;10499246;28;1978;-68
2023/06/20 18:42:26;;;;;;;;;;;;;;;27.69;87.91;95216.91;10492282;28;4442;-69
2023/06/20 18:47:28;;;;;;;;;;;;;;;27.59;88.39;95214.13;10500924;28;1899;-69
2023/06/20 18:52:31;;;;;;;;;;;;;;;27.38;90.49;95212.97;10493828;28;1919;-68
2023/06/20 18:57:33;;;;;;;;;;;;;;;27.23;92.97;95216.94;10495583;28;1953;-68
2023/06/20 19:02:36;;;;;;;;;;;;;;;27.11;93.94;95225.59;10507395;28;1899;-68
2023/06/20 19:07:39;;;;;;;;;;;;;;;27.01;95.56;95242.88;10503867;28;1915;-69
2023/06/20 19:12:42;;;;;;;;;;;;;;;26.86;97.34;95248.38;10502814;28;1963;-69
2023/06/20 19:17:44;;;;;;;;;;;;;;;26.77;97.93;95260.94;10506198;28;2036;-69
2023/06/20 19:22:50;;;;;;;;;;;;;;;26.73;97.67;95265.69;10503320;28;2314;-69
2023/06/20 19:27:52;;;;;;;;;;;;;;;26.67;98.40;95290.09;10509191;28;1953;-69
2023/06/20 19:32:54;;;;;;;;;;;;;;;26.61;98.52;95297.16;10507175;28;1906;-70
2023/06/20 19:38:00;;;;;;;;;;;;;;;26.73;97.19;95276.72;10496091;28;1991;-69
2023/06/20 19:43:03;;;;;;;;;;;;;;;26.67;97.86;95241.25;10500445;28;1943;-67
2023/06/20 19:48:06;;;;;;;;;;;;;;;26.71;99.19;95251.47;10500625;28;2016;-68
2023/06/20 19:53:08;;;;;;;;;;;;;;;26.80;100.00;95331.88;10510917;28;1927;-69
2023/06/20 19:58:11;;;;;;;;;;;;;;;24.83;100.00;95444.25;10512748;28;1934;-70
2023/06/20 20:03:13;;;;;;;;;;;;;;;21.17;100.00;95510.97;10511293;28;1920;-69
2023/06/20 20:08:16;;;;;;;;;;;;;;;20.21;100.00;95459.72;10502655;28;1919;-70
2023/06/20 20:13:19;;;;;;;;;;;;;;;20.23;100.00;95438.38;10500851;28;1968;-68
2023/06/20 20:18:21;;;;;;;;;;;;;;;20.47;100.00;95440.25;10503459;28;1976;-71
2023/06/20 20:23:23;;;;;;;;;;;;;;;20.93;100.00;95459.94;10502259;28;2154;-69
2023/06/20 20:28:44;;;;;;;;;;;;;;;20.65;100.00;95453.66;10492750;28;1950;-69
2023/06/20 20:33:47;;;;;;;;;;;;;;;20.49;100.00;95468.03;10497173;28;1973;-69
2023/06/20 20:38:49;;;;;;;;;;;;;;;20.52;100.00;95450.16;10494243;28;1887;-67
2023/06/20 20:43:52;;;;;;;;;;;;;;;20.49;100.00;95435.28;10498651;28;4577;-69
2023/06/20 20:48:56;;;;;;;;;;;;;;;20.36;100.00;95424.66;10498485;28;1908;-69
2023/06/20 20:53:58;;;;;;;;;;;;;;;20.24;100.00;95444.63;10505777;28;2001;-69
2023/06/20 20:59:00;;;;;;;;;;;;;;;20.20;100.00;95443.69;10500343;28;1964;-69
2023/06/20 21:04:03;;;;;;;;;;;;;;;20.05;100.00;95444.41;10504869;28;1903;-69
2023/06/20 21:09:05;;;;;;;;;;;;;;;20.16;100.00;95445.50;10501486;28;2003;-69
2023/06/20 21:14:08;;;;;;;;;;;;;;;20.84;100.00;95459.28;10502436;28;1971;-69
2023/06/20 21:19:10;;;;;;;;;;;;;;;20.61;100.00;95489.03;10500473;28;2687;-68
2023/06/20 21:24:12;;;;;;;;;;;;;;;19.99;100.00;95490.22;10503346;28;1918;-69
2023/06/20 21:29:15;;;;;;;;;;;;;;;19.86;100.00;95480.44;10501766;28;1894;-69
2023/06/20 21:34:17;;;;;;;;;;;;;;;19.84;100.00;95469.84;10497503;28;1913;-68
2023/06/20 21:39:20;;;;;;;;;;;;;;;19.90;100.00;95482.13;10499873;28;1892;-69
2023/06/20 21:44:22;;;;;;;;;;;;;;;20.00;100.00;95485.56;10504581;28;1932;-70
2023/06/20 21:49:25;;;;;;;;;;;;;;;20.55;100.00;95489.63;10498592;28;2879;-68
2023/06/20 21:54:27;;;;;;;;;;;;;;;20.50;100.00;95480.53;10500023;28;1942;-68
2023/06/20 21:59:29;;;;;;;;;;;;;;;20.60;100.00;95459.34;10490933;28;1948;-68
2023/06/20 22:04:33;;;;;;;;;;;;;;;20.71;100.00;95471.38;10489614;28;1910;-67
2023/06/20 22:09:35;;;;;;;;;;;;;;;20.50;100.00;95475.09;10492747;28;1851;-68
2023/06/20 22:14:48;;;;;;;;;;;;;;;20.67;100.00;95465.81;10495247;28;2476;-68
2023/06/20 22:19:50;;;;;;;;;;;;;;;20.87;100.00;95461.34;10495816;28;1895;-70
2023/06/20 22:24:53;;;;;;;;;;;;;;;20.92;100.00;95460.28;10499590;28;1904;-68
2023/06/20 22:29:55;;;;;;;;;;;;;;;20.92;100.00;95468.47;10496443;28;2020;-69
2023/06/20 22:34:58;;;;;;;;;;;;;;;20.98;100.00;95464.34;10510492;28;1924;-69
2023/06/20 22:40:00;;;;;;;;;;;;;;;20.88;100.00;95464.88;10511758;28;1930;-68
2023/06/20 22:45:03;;;;;;;;;;;;;;;20.77;100.00;95478.22;10508236;28;4639;-69
2023/06/20 22:50:05;;;;;;;;;;;;;;;20.78;100.00;95480.59;10507472;28;1884;-70
2023/06/20 22:55:08;;;;;;;;;;;;;;;20.68;100.00;95480.28;10508747;28;1962;-69
2023/06/20 23:00:11;;;;;;;;;;;;;;;20.71;100.00;95464.00;10508220;28;1954;-69
2023/06/20 23:05:14;;;;;;;;;;;;;;;20.95;100.00;95470.53;10517172;28;1848;-69
2023/06/20 23:10:18;;;;;;;;;;;;;;;20.71;100.00;95485.06;10505504;28;2417;-69
2023/06/20 23:15:21;;;;;;;;;;;;;;;20.68;100.00;95485.75;10508892;28;1953;-69
2023/06/20 23:20:23;;;;;;;;;;;;;;;21.12;100.00;95481.19;10498893;28;1942;-69
2023/06/20 23:25:29;;;;;;;;;;;;;;;20.89;100.00;95478.16;10501277;28;2076;-68
2023/06/20 23:30:32;;;;;;;;;;;;;;;20.68;100.00;95488.47;10492202;28;2011;-69
2023/06/20 23:35:34;;;;;;;;;;;;;;;21.07;100.00;95477.88;10497829;28;1998;-71
2023/06/20 23:40:37;;;;;;;;;;;;;;;20.66;100.00;95493.47;10495899;28;1905;-69
2023/06/20 23:45:39;;;;;;;;;;;;;;;20.66;100.00;95493.47;10494832;28;2074;-69
2023/06/20 23:50:43;;;;;;;;;;;;;;;20.89;100.00;95504.69;10502876;28;1892;-69
2023/06/20 23:55:45;;;;;;;;;;;;;;;21.08;100.00;95501.34;10505471;28;1969;-68
